Williamsport, Indiana
Current Conditions -  °F | °C
As of 3:35 AM on Saturday 25 Oct 2014 (Local Time) from KDNV Reporting Station
Overcast Overcast  
Wind Chill: 57°   Ceiling: 3400
Heat Index: 57°   Visibility: 10mi
Dew Point: 53°   Wind: 10mph
Humidity: 84%   Direction: 210°SSW
Pressure: 29.93"   Gusts: NA
Location:  40.29°N, 87.29°W
Report Text: KDNV 250735Z AUTO 21009KT 10SM OVC034 14/12 A2993 RMK AO2 T01410115
Loading
Personal Weather Stations






























Interactive Weather Map New forecast layout! Learn more

10-Day Weather Forecast

Advertisements
Track Severe Weather on mobile